Maize, Kansas
Current Conditions -  °F | °C
As of 9:53 AM on Sunday 23 Nov 2014 (Local Time) from KICT Reporting Station
Overcast Overcast  
Wind Chill: 54°   Ceiling: 2200
Heat Index: 54°   Visibility: 10mi
Dew Point: 50°   Wind: 7mph
Humidity: 86%   Direction: 230°SW
Pressure: 29.45"   Gusts: NA
Location:  37.78°N, 97.47°W
Report Text: KICT 231553Z 23006KT 10SM BKN022 OVC028 12/10 A2945 RMK AO2 DZE50 SLP968 P0000 T01220100
Loading
Personal Weather Stations






























Interactive Weather Map New forecast layout! Learn more

10-Day Weather Forecast

Advertisements
Track Severe Weather on mobile